Main page
METAR-TAF:

METAR-TAF

Airports :

Kerry Airport

Killarney, Ireland

latitude: 52-10-51N, longitude: 9-31-26W, elevation: 34 m

Current weather observation

The report was made 12 hours and 35 minutes ago, at 17:00 UTC
Wind 11 kt from the South
Temperature 16°C
Humidity 88%
Pressure 1006 hPa
Visibility 10 km or more
Few clouds at a height of 3600 ft

METAR: EIKY 181700Z 19011KT 9999 FEW036 16/14 Q1006

Time: 06:35 (05:35 UTC)

Forecast

The report was made 12 hours and 35 minutes ago, at 17:00 UTC
Forecast valid from 18 at 18 UTC to 19 at 03 UTC
Wind 9 kt from the South
Visibility 10 km or more
Broken clouds at a height of 2500 ft
Probability 40% :
Temporary
from 18 at 18 UTC to 18 at 24 UTC
Broken clouds at a height of 1400 ft
Probability 40% :
Temporary
from 19 at 00 UTC to 19 at 03 UTC
Visibility: 4000 m
Broken clouds at a height of 1400 ft
light rain

TAF: EIKY 181700Z 1818/1903 19009KT 9999 BKN025 PROB40 TEMPO 1818/1824 BKN014 PROB40 TEMPO 1900/1903 4000 -RA BKN014

Weather observations and forecasts of more than 4000 airports (METAR and TAF reports).

The available stations are represented by yellow and red dots on the map.

Hover mouse over dot to see the name of the station.

Then click to see weather observations and forecasts.

To change the map : click on the green buttons with a black cross to zoom in, on the green button with a dash to zoom out, or on the green arrows for adjacent maps.


METAR-TAF: